Cisco Butte, California Weather observations

Data are for observation ending at time listed.
 Day   Time    Ave.   Ave.  Ave.  Vector   Max.   Stn.    Total    Solar   Ave.   Snow 
  of    of     Air    Rel.  Wind   Wind    Wind   Baro.  Precip.   Rad.    Soil   Depth
Year   Day     Temp.  Hum.  Speed  Dir.    Gust   Pres.                    Temp.       
2014   (PST)    F      %     mph   deg.    mph     mb.     in.     W/m2     F      in. 
---------------------------------------------------------------------------------------  
 262    1:50   50.0    68    9.1    98     12.1   823.0    0.00       0    999.0  158.1
 262    2:00   49.7    68    9.8   110     15.6   823.0    0.00       0    999.0  157.8
 262    2:10   49.5    69   10.0   103     13.2   823.0    0.00       0    999.0  157.8
 262    2:20   50.0    67    9.8   104     13.7   823.0    0.00       0    999.0  158.1
 262    2:30   50.4    66   10.0   110     14.2   823.0    0.00       0    999.0  158.0
 262    2:40   50.8    65   10.6    99     13.2   823.0    0.00       0    999.0  158.2
 262    2:50   51.4    63   10.9    98     14.0   823.0    0.00       0    999.0  158.2
 262    3:00   51.2    62   10.6    96     14.0   823.0    0.00       0    999.0  157.9
 262    3:10   51.5    61    9.8   100     13.4   823.0    0.00       0    999.0  158.3
 262    3:20   51.5    60    8.6   103     12.1   823.0    0.00       0    999.0  158.2
 262    3:30   51.1    60    6.5   106      9.9   823.0    0.00       0    999.0  157.9
 262    3:40   51.2    59    4.9   111      8.4   823.0    0.00       0    999.0  158.1
 262    3:50   50.9    61    3.5   127      5.3   823.0    0.00       0    999.0  157.2
 262    4:00   50.5    61    6.2   121      9.3   823.0    0.00       0    999.0  157.6
 262    4:10   50.9    58    8.0   115     10.6   823.0    0.00       0    999.0  157.7
 262    4:20   50.7    59    9.1   122     12.5   823.0    0.00       0    999.0  157.8
 262    4:30   50.8    57    9.7   120     13.3   823.0    0.00       0    999.0  157.9
 262    4:40   51.2    56   10.1   122     17.4   822.0    0.00       0    999.0  157.8
 262    4:50   52.1    52   11.1   119     20.5   822.0    0.00       0    999.0  157.8
 262    5:00   52.4    51   10.8   122     17.2   822.0    0.00       0    999.0  158.0
 262    5:10   51.9    52   12.1   123     18.6   822.0    0.00       0    999.0  158.2
 262    5:20   52.0    51   11.8   115     16.6   822.0    0.00       0    999.0  157.9
 262    5:30   52.2    52   12.9   111     19.1   822.0    0.00       0    999.0  158.2
 262    5:40   53.2    50   14.2   106     21.8   823.0    0.00       0    999.0  157.8
 262    5:50   53.2    50   13.8   107     19.7   823.0    0.00       1    999.0  158.0
 262    6:00   54.0    49   16.2   102     22.9   823.0    0.00       3    999.0  157.9
 262    6:10   54.6    48   16.6   102     23.5   823.0    0.00       7    999.0  157.6
 262    6:20   54.8    48   17.9    99     23.2   823.0    0.00      18    999.0  157.8
 262    6:30   54.6    49   16.0   104     21.8   823.0    0.00      30    999.0  157.7
 262    6:40   54.5    50   14.5   107     20.0   823.0    0.00      42    999.0  157.7
 262    6:50   54.5    50   14.2   104     20.0   823.0    0.00      55    999.0  157.8
 262    7:00   54.7    50   13.8   108     19.3   823.0    0.00      72    999.0  158.0
 262    7:10   55.3    50   14.3   111     20.2   823.0    0.00      93    999.0  157.6
 262    7:20   55.6    50   14.2   115     20.2   823.0    0.00     110    999.0  157.4
 262    7:30   56.1    49   13.4   116     19.7   823.0    0.00     127    999.0  157.4
 262    7:40   56.5    49   13.1   112     18.7   823.0    0.00     144    999.0  157.5
 262    7:50   57.2    48   12.7   111     19.6   823.0    0.00     167    999.0  157.4
 262    8:00   57.9    46   13.8   109     20.8   823.0    0.00     191    999.0  157.4
 262    8:10   58.1    46   15.5    95     22.4   823.0    0.00     215    999.0  157.5
 262    8:20   58.7    45   15.4    98     21.3   823.0    0.00     236    999.0  157.4
 262    8:30   59.3    43   16.9    97     24.0   823.0    0.00     250    999.0  157.2
 262    8:40   60.2    41   17.0    98     24.5   823.0    0.00     268    999.0  157.2
 262    8:50   60.9    39   18.3    97     30.6   823.0    0.00     295    999.0  157.1
 262    9:00   61.5    39   17.6    96     24.5   824.0    0.00     316    999.0  156.8
 262    9:10   62.3    38   16.8   103     26.3   824.0    0.00     342    999.0  156.3
 262    9:20   63.5    36   14.0   109     25.7   824.0    0.00     363    999.0  155.8
 262    9:30   63.7    36   15.7   106     24.4   824.0    0.00     377    999.0  155.9
 262    9:40   63.4    36   15.7    94     21.5   824.0    0.00     398    999.0  155.6
 262    9:50   64.7    34   13.3   103     20.8   824.0    0.00     410    999.0  155.7
 262   10:00   65.3    34   13.2   105     24.0   824.0    0.00     424    999.0  155.6
 262   10:10   65.7    34   12.5   112     20.4   824.0    0.00     438    999.0  155.4
 262   10:20   66.1    33   14.7   108     20.9   824.0    0.00     451    999.0  155.4
 262   10:30   65.5    33   17.2    99     24.0   824.0    0.00     466    999.0  155.4
 262   10:40   66.2    32   14.7   115     24.3   824.0    0.00     476    999.0  155.4
 262   10:50   66.5    32   16.0   107     24.6   824.0    0.00     483    999.0  155.4
 262   11:00   67.0    32   14.0   103     21.5   824.0    0.00     488    999.0  155.4
 262   11:10   67.2    31   14.7   112     23.0   824.0    0.00     494    999.0  155.3
 262   11:20   67.4    31   15.0   114     23.9   824.0    0.00     504    999.0  155.4
 262   11:30   67.7    31   17.5   114     25.6   824.0    0.00     510    999.0  155.4
 262   11:40   68.3    30   14.6   103     21.9   824.0    0.00     518    999.0  155.2
 262   11:50   68.1    30   16.7    95     29.0   823.0    0.00     521    999.0  155.4
 262   12:00   68.4    30   14.8    97     25.8   823.0    0.00     522    999.0  155.2
 262   12:10   69.0    29   15.8    95     23.5   823.0    0.00     522    999.0  155.2
 262   12:20   68.9    29   17.6    95     26.6   823.0    0.00     522    999.0  155.2
 262   12:30   69.2    28   18.7    94     26.5   823.0    0.00     519    999.0  155.1
 262   12:40   69.5    28   15.6    95     24.9   823.0    0.00     519    999.0  155.1
 262   12:50   69.7    28   14.7   109     21.2   823.0    0.00     519    999.0  155.0
 262   13:00   70.0    28   13.9   120     21.5   823.0    0.00     511    999.0  155.0
 262   13:10   70.3    27   10.4   106     21.1   823.0    0.00     500    999.0  154.7
 262   13:20   70.9    26   11.5   104     18.0   823.0    0.00     493    999.0  154.8
 262   13:30   70.9    26   10.8   103     20.2   823.0    0.00     481    999.0  154.8
 262   13:40   71.3    26    9.4    96     16.6   823.0    0.00     475    999.0  154.8
 262   13:50   71.9    26   10.9   113     18.6   823.0    0.00     463    999.0  154.8
 262   14:00   71.6    25    9.9   109     17.8   823.0    0.00     455    999.0  154.9
 262   14:10   72.1    25    9.4   112     17.1   823.0    0.00     460    999.0  154.8
 262   14:20   71.8    24   11.1   110     20.1   823.0    0.00     440    999.0  154.9
 262   14:30   72.5    25    7.1   117     14.2   823.0    0.00     433    999.0  154.8
 262   14:40   71.8    25   13.7    96     21.0   823.0    0.00     386    999.0  154.6
 262   14:50   71.7    26    8.7   102     19.2   823.0    0.00     254    999.0  154.3
 262   15:00   72.1    25    9.2   112     16.7   823.0    0.00     325    999.0  154.2
 262   15:10   71.3    26    8.3   100     15.3   823.0    0.00     170    999.0  154.1
 262   15:20   71.2    26   10.3    96     16.9   823.0    0.00     169    999.0  154.6
 262   15:30   71.0    26    7.5   102     11.1   823.0    0.00     148    999.0  139.1
 262   15:40   71.0    26    6.2    98     12.9   823.0    0.00     259    999.0  154.1
 262   15:50   71.7    25    4.3   121      9.6   823.0    0.00     278    999.0  154.7
 262   16:00   71.7    25    5.3   111     11.8   823.0    0.00     190    999.0  154.8
 262   16:10   71.0    26    5.3   104     15.4   823.0    0.00      82    999.0  154.7
 262   16:20   70.1    26    6.5    95     11.6   823.0    0.00      42    999.0  154.7
 262   16:30   69.6    27    7.9    95     13.4   823.0    0.00      39    999.0  154.8
 262   16:40   69.9    26    6.0   105     12.6   823.0    0.00     138    999.0  154.8
 262   16:50   70.4    27    4.7    82      9.3   823.0    0.00      94    999.0  139.2
 262   17:00   70.9    38    3.2   270      8.0   823.0    0.00      39    999.0   44.9
 262   17:10   69.8    42    4.5   278      8.8   823.0    0.00      73    999.0   -0.5
 262   17:20   69.5    35    2.8   198      7.2   823.0    0.00      58    999.0   -0.6
 262   17:30   68.6    48    4.8   285      9.4   823.0    0.00      45    999.0   -0.5
 262   17:40   67.3    51    4.3   278      7.5   823.0    0.00      33    999.0   -0.4
 262   17:50   66.7    51    2.8   285      5.5   823.0    0.00      19    999.0   -0.4
 262   18:00   66.5    41    4.5   130     13.9   823.0    0.00       7    999.0   -0.3
 262   18:10   67.0    33    3.6    82      7.2   823.0    0.00       3    999.0   -0.3
 262   18:20   66.9    30    6.6    94     11.3   823.0    0.00       1    999.0   -0.3
 262   18:30   66.9    29    7.2   101     13.0   823.0    0.00       0    999.0   62.5
 262   18:40   67.0    29    7.3    99     11.2   823.0    0.00       0    999.0  155.0
 262   18:50   66.3    30    6.4   105     11.0   823.0    0.00       0    999.0  155.2
 262   19:00   65.6    31    6.3   106     11.0   824.0    0.00       0    999.0  108.3
 262   19:10   65.4    30    6.6   104      9.3   824.0    0.00       0    999.0  123.8
 262   19:20   65.4    30    7.6   101     11.5   824.0    0.00       0    999.0  139.5
 262   19:30   65.2    31    7.5   101      9.4   824.0    0.00       0    999.0  155.2
 262   19:40   65.0    31    8.3   100     10.5   824.0    0.00       0    999.0  155.3
 262   19:50   64.3    32    6.6   100      8.3   824.0    0.00       0    999.0  155.0
 262   20:00   64.0    32    6.3   104      8.3   824.0    0.00       0    999.0   91.8
 262   20:10   63.4    33    6.6   111      8.9   824.0    0.00       0    999.0   -0.5
 262   20:20   62.8    33    7.0   112      9.2   824.0    0.00       0    999.0   -0.4
 262   20:30   62.5    34    6.4   114      8.6   824.0    0.00       0    999.0   -0.4
 262   20:40   62.3    34    5.6   112      7.7   824.0    0.00       0    999.0   -0.5
 262   20:50   61.7    34    4.3   111      6.7   824.0    0.00       0    999.0   -0.3
 262   21:00   60.9    36    3.0   108      5.5   824.0    0.00       0    999.0   46.3
 262   21:10   60.2    37    4.9   114      7.5   824.0    0.00       0    999.0   48.0
 262   21:20   60.4    36    7.0   116     10.6   824.0    0.00       0    999.0  125.2
 262   21:30   59.5    38    8.3   120     11.3   824.0    0.00       0    999.0  142.9
 262   21:40   58.8    39    8.2   126     12.2   824.0    0.00       0    999.0  158.2
 262   21:50   59.5    38    7.7   127     11.8   824.0    0.00       0    999.0  157.9
 262   22:00   61.4    35    8.2   115     15.7   824.0    0.00       0    999.0  157.9
 262   22:10   62.7    33    7.7   108     13.2   824.0    0.00       0    999.0  140.3
 262   22:20   62.5    33    7.6   110     15.0   824.0    0.00       0    999.0  155.1
 262   22:30   62.4    33    8.8   110     18.6   824.0    0.00       0    999.0  155.0
 262   22:40   62.6    33    9.3   114     14.8   824.0    0.00       0    999.0  155.0
 262   22:50   62.3    34    9.9   117     17.7   824.0    0.00       0    999.0  155.0
 262   23:00   63.1    32   11.3   104     18.6   824.0    0.00       0    999.0  155.3
 262   23:10   63.7    32   11.2   104     20.3   824.0    0.00       0    999.0  155.6
 262   23:20   63.2    32   10.2   106     17.6   824.0    0.00       0    999.0  155.9
 262   23:30   64.1    31   11.1   102     18.7   824.0    0.00       0    999.0  156.3
 262   23:40   63.4    32   10.8   108     19.0   824.0    0.00       0    999.0  156.0
 262   23:50   63.1    33   10.6   110     18.9   824.0    0.00       0    999.0  155.7
 263    0:00   62.4    34    9.3   111     16.8   824.0    0.00       0    999.0  155.3
 263    0:10   61.0    36    7.5   122     13.3   824.0    0.00       0    999.0  155.1
 263    0:20   60.9    36    7.6   112     14.6   824.0    0.00       0    999.0  155.7
 263    0:30   61.7    34    8.2   114     15.1   824.0    0.00       0    999.0  155.6
 263    0:40   62.1    34    9.5   107     18.3   824.0    0.00       0    999.0  155.3
 263    0:50   62.9    33   11.4   104     18.9   824.0    0.00       0    999.0  155.0
 263    1:00   61.8    34   10.8   110     18.5   824.0    0.00       0    999.0  154.8
 263    1:10   62.1    33   11.9   104     18.8   824.0    0.00       0    999.0  154.9
 263    1:20   62.9    32   14.0   100     19.4   824.0    0.00       0    999.0  155.0
 263    1:30   62.2    33   14.5   106     21.4   824.0    0.00       0    999.0  155.1
 263    1:40   61.5    34   12.8   111     19.3   824.0    0.00       0    999.0  155.0

Return to Cisco Butte graphs page.


Western Regional Climate Center,wrcc@dri.edu